createdAt,value
2022-09-23T00:02:24.149Z,9.06
2022-09-23T00:06:29.871Z,9.02
2022-09-23T00:10:33.486Z,8.96
2022-09-23T00:14:38.490Z,8.92
2022-09-23T00:18:42.757Z,8.86
2022-09-23T00:22:47.668Z,8.83
2022-09-23T00:26:51.641Z,8.78
2022-09-23T00:30:54.759Z,8.74
2022-09-23T00:34:58.295Z,8.70
2022-09-23T00:39:04.563Z,8.68
2022-09-23T00:43:08.175Z,8.65
2022-09-23T00:47:16.035Z,8.68
2022-09-23T00:51:25.174Z,8.73
2022-09-23T00:55:33.547Z,8.76
2022-09-23T00:59:38.018Z,8.81
2022-09-23T01:03:43.148Z,8.82
2022-09-23T01:07:46.919Z,8.79
2022-09-23T01:12:01.300Z,8.74
2022-09-23T01:16:11.223Z,8.67
2022-09-23T01:20:44.886Z,8.59
2022-09-23T01:25:09.036Z,8.54
2022-09-23T01:29:50.486Z,8.47
2022-09-23T01:34:02.223Z,8.47
2022-09-23T01:38:18.608Z,8.49
2022-09-23T01:42:32.795Z,8.56
2022-09-23T01:46:42.926Z,8.66
2022-09-23T01:50:59.218Z,8.79
2022-09-23T01:55:08.803Z,8.90
2022-09-23T01:59:16.812Z,9.01
2022-09-23T02:03:27.522Z,9.11
2022-09-23T02:07:40.729Z,9.18
2022-09-23T02:11:48.203Z,9.23
2022-09-23T02:15:54.779Z,9.28
2022-09-23T02:20:03.885Z,9.30
2022-09-23T02:24:13.059Z,9.34
2022-09-23T02:28:24.775Z,9.36
2022-09-23T02:32:33.434Z,9.36
2022-09-23T02:36:46.696Z,9.35
2022-09-23T02:40:58.777Z,9.36
2022-09-23T02:45:02.489Z,9.35
2022-09-23T02:49:11.538Z,9.34
2022-09-23T02:53:16.278Z,9.28
2022-09-23T02:57:21.713Z,9.20
2022-09-23T03:01:39.772Z,9.11
2022-09-23T03:05:48.822Z,9.05
2022-09-23T03:09:58.032Z,8.99
2022-09-23T03:14:18.144Z,8.95
2022-09-23T03:18:28.853Z,8.95
2022-09-23T03:22:36.373Z,8.99
2022-09-23T03:26:43.952Z,9.01
2022-09-23T03:30:51.254Z,9.01
2022-09-23T03:34:59.414Z,8.46
2022-09-23T03:39:07.365Z,8.98
2022-09-23T03:43:12.371Z,8.96
2022-09-23T03:47:18.671Z,8.94
2022-09-23T03:51:24.450Z,8.89
2022-09-23T03:55:27.461Z,8.85
2022-09-23T03:59:31.901Z,8.83
2022-09-23T04:03:36.429Z,8.79
2022-09-23T04:07:40.302Z,8.76
2022-09-23T04:11:43.423Z,8.73
2022-09-23T04:15:47.047Z,8.70
2022-09-23T04:19:51.467Z,8.66
2022-09-23T04:23:54.910Z,8.64
2022-09-23T04:27:58.153Z,8.63
2022-09-23T04:32:01.654Z,8.62
2022-09-23T04:36:06.300Z,8.63
2022-09-23T04:40:11.158Z,8.66
2022-09-23T04:44:16.616Z,8.71
2022-09-23T04:48:20.489Z,8.76
2022-09-23T04:52:24.891Z,8.83
2022-09-23T04:56:33.190Z,8.88
2022-09-23T05:00:36.524Z,8.92
2022-09-23T05:04:41.287Z,8.96
2022-09-23T05:08:50.190Z,8.99
2022-09-23T05:12:57.002Z,8.99
2022-09-23T05:17:00.483Z,9.01
2022-09-23T05:21:04.487Z,9.03
2022-09-23T05:25:09.750Z,9.03
2022-09-23T05:29:13.394Z,9.06
2022-09-23T05:33:16.363Z,9.07
2022-09-23T05:37:19.799Z,9.13
2022-09-23T05:41:25.360Z,9.21
2022-09-23T05:45:28.989Z,9.31
2022-09-23T05:49:55.319Z,9.37
2022-09-23T05:53:58.860Z,9.45
2022-09-23T05:58:03.804Z,9.50
2022-09-23T06:02:06.816Z,9.55
2022-09-23T06:06:15.018Z,9.59
2022-09-23T06:10:18.139Z,9.64
2022-09-23T06:14:23.009Z,9.73
2022-09-23T06:18:26.135Z,9.82
2022-09-23T06:22:29.843Z,9.92
2022-09-23T06:26:35.414Z,10.05
2022-09-23T06:30:40.886Z,10.17
2022-09-23T06:34:51.736Z,10.32
2022-09-23T06:38:56.016Z,10.51
2022-09-23T06:43:00.100Z,10.68
2022-09-23T06:47:04.905Z,10.85
2022-09-23T06:51:08.951Z,11.05
2022-09-23T06:55:12.025Z,11.23
2022-09-23T06:59:17.683Z,11.40
2022-09-23T07:03:22.856Z,11.61
2022-09-23T07:07:27.218Z,11.87
2022-09-23T07:11:30.304Z,12.14
2022-09-23T07:15:34.352Z,12.46
2022-09-23T07:19:39.374Z,12.76
2022-09-23T07:23:42.853Z,13.04
2022-09-23T07:27:48.931Z,13.27
2022-09-23T07:31:53.336Z,13.48
2022-09-23T07:35:59.367Z,13.71
2022-09-23T07:40:02.841Z,13.96
2022-09-23T07:44:06.962Z,14.29
2022-09-23T07:48:09.985Z,14.67
2022-09-23T07:52:14.342Z,14.96
2022-09-23T07:56:19.673Z,15.12
2022-09-23T08:00:23.116Z,15.28
2022-09-23T08:04:28.404Z,15.52
2022-09-23T08:08:33.542Z,15.98
2022-09-23T08:12:36.680Z,16.53
2022-09-23T08:16:39.966Z,16.99
2022-09-23T08:20:47.420Z,17.42
2022-09-23T08:24:55.189Z,17.72
2022-09-23T08:28:59.651Z,18.01
2022-09-23T08:33:03.100Z,18.38
2022-09-23T08:37:10.863Z,18.79
2022-09-23T08:41:28.847Z,19.21
2022-09-23T08:45:32.220Z,19.52
2022-09-23T08:49:41.417Z,19.80
2022-09-23T08:53:45.672Z,19.95
2022-09-23T08:58:24.441Z,20.08
2022-09-23T09:02:29.655Z,20.16
2022-09-23T09:06:52.489Z,20.27
2022-09-23T09:10:58.806Z,20.39
2022-09-23T09:15:08.522Z,20.57
2022-09-23T09:19:19.110Z,20.71
2022-09-23T09:23:25.158Z,20.86
2022-09-23T09:27:28.713Z,21.00
2022-09-23T09:31:39.524Z,21.25
2022-09-23T09:36:09.497Z,21.53
2022-09-23T09:40:14.218Z,21.82
2022-09-23T09:44:27.359Z,22.00
2022-09-23T09:48:39.421Z,22.15
2022-09-23T09:52:43.580Z,22.15
2022-09-23T10:00:55.580Z,22.28
2022-09-23T10:05:03.472Z,22.46
2022-09-23T10:09:19.767Z,22.71
2022-09-23T10:13:24.808Z,22.88
2022-09-23T10:17:34.155Z,23.05
2022-09-23T10:21:39.940Z,23.10
2022-09-23T10:25:44.408Z,23.20
2022-09-23T10:29:51.905Z,23.30
2022-09-23T10:33:57.928Z,23.42
2022-09-23T10:38:02.768Z,23.54
2022-09-23T10:42:45.141Z,23.65
2022-09-23T10:46:57.812Z,23.75
2022-09-23T10:51:01.037Z,23.98
2022-09-23T10:55:15.999Z,24.14
2022-09-23T10:59:45.075Z,24.21
2022-09-23T11:04:12.309Z,24.21
2022-09-23T11:08:31.728Z,24.28
2022-09-23T11:12:47.863Z,24.37
2022-09-23T11:17:15.216Z,24.55
2022-09-23T11:21:40.351Z,24.76
2022-09-23T11:25:52.587Z,24.93
2022-09-23T11:30:05.728Z,25.08
2022-09-23T11:34:26.630Z,25.23
2022-09-23T11:38:36.683Z,25.40
2022-09-23T11:42:47.460Z,25.49
2022-09-23T11:46:58.005Z,25.61
2022-09-23T11:51:07.041Z,25.63
2022-09-23T11:55:22.802Z,25.61
2022-09-23T11:59:40.548Z,25.67
2022-09-23T12:03:53.871Z,25.76
2022-09-23T12:08:04.439Z,25.85
2022-09-23T12:12:15.244Z,25.94
2022-09-23T12:16:40.153Z,26.00
2022-09-23T12:20:56.945Z,26.03
2022-09-23T12:25:10.980Z,25.83
2022-09-23T12:29:16.084Z,25.75
2022-09-23T12:33:25.210Z,25.67
2022-09-23T12:37:36.288Z,25.67
2022-09-23T12:41:42.515Z,25.67
2022-09-23T12:45:46.489Z,25.72
2022-09-23T12:49:50.965Z,25.77
2022-09-23T12:53:58.974Z,25.78
2022-09-23T12:58:02.377Z,25.80
2022-09-23T13:02:28.319Z,25.83
2022-09-23T13:06:41.457Z,25.87
2022-09-23T13:10:50.319Z,25.94
2022-09-23T13:14:56.465Z,25.94
2022-09-23T13:19:00.877Z,25.92
2022-09-23T13:23:29.659Z,25.83
2022-09-23T13:27:35.301Z,25.83
2022-09-23T13:31:39.521Z,25.79
2022-09-23T13:35:47.641Z,25.79
2022-09-23T13:39:51.672Z,25.83
2022-09-23T13:43:58.785Z,25.92
2022-09-23T13:48:06.199Z,26.00
2022-09-23T13:52:25.545Z,26.07
2022-09-23T13:56:30.629Z,25.98
2022-09-23T14:00:39.418Z,25.93
2022-09-23T14:04:43.018Z,25.94
2022-09-23T14:08:48.330Z,25.98
2022-09-23T14:12:53.914Z,26.07
2022-09-23T14:17:00.615Z,26.11
2022-09-23T14:21:04.398Z,26.03
2022-09-23T14:25:15.614Z,25.89
2022-09-23T14:29:21.185Z,25.75
2022-09-23T14:33:28.561Z,25.62
2022-09-23T14:37:52.996Z,25.56
2022-09-23T14:41:57.189Z,25.41
2022-09-23T14:46:01.219Z,25.21
2022-09-23T14:50:24.386Z,24.99
2022-09-23T14:54:38.346Z,24.74
2022-09-23T14:58:54.197Z,24.56
2022-09-23T15:03:02.829Z,24.34
2022-09-23T15:07:17.386Z,24.16
2022-09-23T15:11:22.657Z,24.01
2022-09-23T15:15:30.097Z,23.90
2022-09-23T15:19:35.912Z,23.79
2022-09-23T15:23:47.100Z,23.70
2022-09-23T15:28:06.287Z,23.56
2022-09-23T15:32:09.375Z,23.35
2022-09-23T15:40:32.830Z,22.80
2022-09-23T15:44:36.472Z,22.86
2022-09-23T15:48:44.187Z,22.71
2022-09-23T15:52:47.210Z,22.50
2022-09-23T15:56:52.281Z,22.00
2022-09-23T16:00:58.129Z,22.21
2022-09-23T16:05:03.506Z,21.92
2022-09-23T16:09:07.084Z,21.73
2022-09-23T16:13:15.803Z,21.51
2022-09-23T16:17:19.430Z,21.22
2022-09-23T16:21:25.770Z,20.98
2022-09-23T16:25:32.526Z,20.66
2022-09-23T16:29:37.972Z,20.50
2022-09-23T16:33:41.031Z,20.29
2022-09-23T16:37:47.713Z,20.08
2022-09-23T16:41:50.734Z,19.87
2022-09-23T16:45:55.867Z,19.63
2022-09-23T16:49:58.923Z,19.34
2022-09-23T16:54:02.560Z,19.06
2022-09-23T16:58:06.028Z,18.74
2022-09-23T17:02:30.563Z,18.41
2022-09-23T17:06:34.219Z,18.08
2022-09-23T17:10:37.736Z,17.74
2022-09-23T17:14:40.764Z,17.45
2022-09-23T17:18:45.173Z,17.19
2022-09-23T17:22:48.421Z,16.94
2022-09-23T17:26:53.228Z,16.72
2022-09-23T17:30:59.594Z,16.49
2022-09-23T17:35:04.830Z,16.37
2022-09-23T17:39:08.507Z,16.22
2022-09-23T17:43:11.600Z,16.08
2022-09-23T17:47:15.052Z,15.97
2022-09-23T17:51:20.980Z,15.88
2022-09-23T17:55:23.992Z,15.79
2022-09-23T17:59:27.984Z,15.71
2022-09-23T18:03:32.597Z,15.65
2022-09-23T18:07:37.777Z,15.60
2022-09-23T18:11:43.147Z,15.53
2022-09-23T18:15:46.189Z,15.45
2022-09-23T18:19:49.837Z,15.36
2022-09-23T18:23:59.789Z,15.29
2022-09-23T18:28:09.710Z,15.18
2022-09-23T18:32:14.315Z,15.10
2022-09-23T18:36:18.006Z,14.99
2022-09-23T18:40:22.545Z,14.93
2022-09-23T18:44:26.938Z,14.85
2022-09-23T18:48:49.691Z,14.78
2022-09-23T18:52:53.229Z,14.69
2022-09-23T18:56:59.772Z,14.64
2022-09-23T19:01:08.323Z,14.58
2022-09-23T19:05:11.544Z,14.52
2022-09-23T19:09:16.431Z,14.41
2022-09-23T19:13:22.057Z,14.35
2022-09-23T19:17:25.573Z,14.31
2022-09-23T19:21:29.887Z,14.25
2022-09-23T19:25:32.927Z,14.19
2022-09-23T19:29:38.484Z,14.12
2022-09-23T19:33:46.206Z,14.07
2022-09-23T19:37:52.643Z,14.02
2022-09-23T19:41:57.243Z,13.96
2022-09-23T19:46:02.327Z,13.92
2022-09-23T19:50:07.359Z,13.84
2022-09-23T19:54:11.067Z,13.79
2022-09-23T19:58:14.602Z,13.75
2022-09-23T20:02:21.103Z,13.72
2022-09-23T20:06:25.071Z,13.68
2022-09-23T20:10:28.927Z,13.66
2022-09-23T20:14:32.114Z,13.62
2022-09-23T20:18:37.729Z,13.60
2022-09-23T20:22:41.437Z,13.54
2022-09-23T20:27:06.979Z,13.51
2022-09-23T20:31:10.595Z,13.46
2022-09-23T20:35:16.883Z,13.41
2022-09-23T20:39:20.478Z,13.28
2022-09-23T20:43:24.592Z,13.27
2022-09-23T20:47:28.019Z,13.23
2022-09-23T20:51:34.236Z,13.20
2022-09-23T20:55:37.789Z,13.17
2022-09-23T20:59:41.528Z,13.14
2022-09-23T21:03:46.436Z,13.12
2022-09-23T21:07:51.033Z,13.10
2022-09-23T21:11:54.234Z,13.07
2022-09-23T21:15:58.904Z,13.03
2022-09-23T21:20:02.113Z,13.00
2022-09-23T21:24:39.740Z,12.97
2022-09-23T21:28:33.931Z,12.88
2022-09-23T21:32:37.623Z,12.84
2022-09-23T21:40:59.258Z,12.70
2022-09-23T21:45:07.297Z,12.60
2022-09-23T21:49:10.769Z,12.54
2022-09-23T21:53:14.790Z,12.47
2022-09-23T21:57:19.262Z,12.42
2022-09-23T22:01:24.927Z,12.41
2022-09-23T22:05:28.477Z,12.40
2022-09-23T22:09:31.739Z,12.40
2022-09-23T22:13:36.646Z,12.40
2022-09-23T22:17:40.059Z,12.40
2022-09-23T22:21:46.224Z,12.38
2022-09-23T22:25:49.655Z,12.35
2022-09-23T22:30:11.969Z,12.33
2022-09-23T22:34:37.647Z,12.32
2022-09-23T22:38:39.131Z,12.29
2022-09-23T22:42:42.917Z,12.23
2022-09-23T22:46:48.338Z,12.18
2022-09-23T22:50:51.576Z,12.08
2022-09-23T22:54:55.047Z,12.02
2022-09-23T22:59:01.374Z,11.95
2022-09-23T23:03:07.337Z,11.89
2022-09-23T23:07:10.929Z,11.80
2022-09-23T23:11:14.447Z,11.75
2022-09-23T23:15:17.654Z,11.69
2022-09-23T23:19:22.810Z,11.66
2022-09-23T23:23:26.217Z,11.65
2022-09-23T23:27:29.154Z,11.65
2022-09-23T23:31:33.922Z,11.65
2022-09-23T23:35:38.531Z,11.66
2022-09-23T23:39:41.528Z,11.65
2022-09-23T23:43:46.804Z,11.66
2022-09-23T23:47:50.216Z,11.65
2022-09-23T23:51:54.537Z,11.67
2022-09-23T23:55:58.759Z,11.68
